createdAt,value
2022-11-27T00:01:28.294Z,10.85
2022-11-27T00:03:31.148Z,10.43
2022-11-27T00:05:33.950Z,11.65
2022-11-27T00:07:36.832Z,10.57
2022-11-27T00:09:41.600Z,11.35
2022-11-27T00:11:45.419Z,10.95
2022-11-27T00:13:49.143Z,10.73
2022-11-27T00:15:52.138Z,10.35
2022-11-27T00:17:54.876Z,10.75
2022-11-27T00:19:57.711Z,10.95
2022-11-27T00:22:00.482Z,11.70
2022-11-27T00:24:05.794Z,12.70
2022-11-27T00:26:10.529Z,13.07
2022-11-27T00:28:13.308Z,11.45
2022-11-27T00:30:16.333Z,11.05
2022-11-27T00:32:19.000Z,10.55
2022-11-27T00:34:21.687Z,12.10
2022-11-27T00:36:24.624Z,10.18
2022-11-27T00:38:27.272Z,9.70
2022-11-27T00:40:30.183Z,10.20
2022-11-27T00:42:34.255Z,9.68
2022-11-27T00:44:37.310Z,10.35
2022-11-27T00:46:41.013Z,10.95
2022-11-27T00:48:44.246Z,8.70
2022-11-27T00:50:46.966Z,10.38
2022-11-27T00:52:49.760Z,10.20
2022-11-27T00:54:52.439Z,11.10
2022-11-27T00:56:55.073Z,10.40
2022-11-27T00:58:59.672Z,12.23
2022-11-27T01:01:04.587Z,11.55
2022-11-27T01:03:07.333Z,13.50
2022-11-27T01:05:10.462Z,13.25
2022-11-27T01:07:13.398Z,15.52
2022-11-27T01:09:16.384Z,15.77
2022-11-27T01:11:22.131Z,12.82
2022-11-27T01:13:25.974Z,13.13
2022-11-27T01:15:30.140Z,14.55
2022-11-27T01:17:32.996Z,13.32
2022-11-27T01:19:35.783Z,14.27
2022-11-27T01:21:38.511Z,11.00
2022-11-27T01:23:41.808Z,12.10
2022-11-27T01:25:44.563Z,11.48
2022-11-27T01:27:47.251Z,13.60
2022-11-27T01:29:50.095Z,11.70
2022-11-27T01:31:54.176Z,11.00
2022-11-27T01:33:59.075Z,10.82
2022-11-27T01:36:03.771Z,12.35
2022-11-27T01:38:06.424Z,11.65
2022-11-27T01:40:10.393Z,11.38
2022-11-27T01:42:13.374Z,11.75
2022-11-27T01:44:52.565Z,12.38
2022-11-27T01:46:59.801Z,11.10
2022-11-27T01:49:26.374Z,11.02
2022-11-27T01:51:29.283Z,10.65
2022-11-27T01:53:34.268Z,10.20
2022-11-27T01:55:41.982Z,10.55
2022-11-27T01:57:48.648Z,11.02
2022-11-27T01:59:53.158Z,11.13
2022-11-27T02:01:57.329Z,11.27
2022-11-27T02:04:01.965Z,11.85
2022-11-27T02:06:05.089Z,11.10
2022-11-27T02:08:11.568Z,11.55
2022-11-27T02:10:15.354Z,10.20
2022-11-27T02:12:25.340Z,11.05
2022-11-27T02:14:38.457Z,11.85
2022-11-27T02:16:52.363Z,9.68
2022-11-27T02:19:01.085Z,9.65
2022-11-27T02:21:10.141Z,10.35
2022-11-27T02:23:37.487Z,10.40
2022-11-27T02:25:53.047Z,8.88
2022-11-27T02:28:11.991Z,8.90
2022-11-27T02:30:16.632Z,9.70
2022-11-27T02:32:26.520Z,9.75
2022-11-27T02:34:46.856Z,9.20
2022-11-27T02:36:54.438Z,9.18
2022-11-27T02:39:03.043Z,9.57
2022-11-27T02:41:11.479Z,10.93
2022-11-27T02:43:19.588Z,9.55
2022-11-27T02:45:29.296Z,10.30
2022-11-27T02:47:33.819Z,9.63
2022-11-27T02:49:38.782Z,9.68
2022-11-27T02:51:45.933Z,9.50
2022-11-27T02:53:53.101Z,10.40
2022-11-27T02:55:58.976Z,9.27
2022-11-27T02:58:04.808Z,9.93
2022-11-27T03:00:10.230Z,9.82
2022-11-27T03:02:19.993Z,8.93
2022-11-27T03:04:28.044Z,9.05
2022-11-27T03:06:35.204Z,8.75
2022-11-27T03:08:43.459Z,8.35
2022-11-27T03:10:52.187Z,9.32
2022-11-27T03:12:54.929Z,9.48
2022-11-27T03:14:57.887Z,8.73
2022-11-27T03:17:07.002Z,9.23
2022-11-27T03:19:18.174Z,9.90
2022-11-27T03:21:29.931Z,9.85
2022-11-27T03:23:32.772Z,9.98
2022-11-27T03:25:35.587Z,9.52
2022-11-27T03:27:44.512Z,10.70
2022-11-27T03:29:51.830Z,10.52
2022-11-27T03:31:54.647Z,9.15
2022-11-27T03:33:58.714Z,9.30
2022-11-27T03:36:02.865Z,9.25
2022-11-27T03:38:05.960Z,9.00
2022-11-27T03:40:10.326Z,10.23
2022-11-27T03:42:19.961Z,8.35
2022-11-27T03:44:31.844Z,9.88
2022-11-27T03:46:43.677Z,9.52
2022-11-27T03:48:54.921Z,8.38
2022-11-27T03:51:08.670Z,8.63
2022-11-27T03:53:19.960Z,8.80
2022-11-27T03:55:29.697Z,8.18
2022-11-27T03:57:38.818Z,7.97
2022-11-27T03:59:45.572Z,8.88
2022-11-27T04:01:48.535Z,8.90
2022-11-27T04:03:51.345Z,7.57
2022-11-27T04:05:54.283Z,8.27
2022-11-27T04:07:58.438Z,7.90
2022-11-27T04:10:01.231Z,7.68
2022-11-27T04:12:03.997Z,8.50
2022-11-27T04:14:06.732Z,8.40
2022-11-27T04:16:09.822Z,9.60
2022-11-27T04:18:12.804Z,9.07
2022-11-27T04:20:16.540Z,8.43
2022-11-27T04:22:19.738Z,8.38
2022-11-27T04:24:23.864Z,9.27
2022-11-27T04:26:26.591Z,8.40
2022-11-27T04:28:29.284Z,9.15
2022-11-27T04:30:32.479Z,8.57
2022-11-27T04:32:35.238Z,8.65
2022-11-27T04:34:38.080Z,7.75
2022-11-27T04:36:42.150Z,9.05
2022-11-27T04:38:44.857Z,7.95
2022-11-27T04:40:49.226Z,8.13
2022-11-27T04:42:52.030Z,7.35
2022-11-27T04:44:54.752Z,8.38
2022-11-27T04:46:57.509Z,7.57
2022-11-27T04:49:00.439Z,8.02
2022-11-27T04:51:03.120Z,8.13
2022-11-27T04:53:05.823Z,8.38
2022-11-27T04:55:10.820Z,7.78
2022-11-27T04:57:15.034Z,7.00
2022-11-27T04:59:17.801Z,7.43
2022-11-27T05:01:20.835Z,8.02
2022-11-27T05:03:23.734Z,7.93
2022-11-27T05:05:26.524Z,7.88
2022-11-27T05:07:29.401Z,8.35
2022-11-27T05:09:32.130Z,7.88
2022-11-27T05:11:35.292Z,7.18
2022-11-27T05:13:39.641Z,7.50
2022-11-27T05:15:42.390Z,7.80
2022-11-27T05:17:45.196Z,8.57
2022-11-27T05:19:47.942Z,7.82
2022-11-27T05:21:51.404Z,8.25
2022-11-27T05:23:54.220Z,7.47
2022-11-27T05:25:57.315Z,8.02
2022-11-27T05:28:00.061Z,8.00
2022-11-27T05:30:04.543Z,7.40
2022-11-27T05:32:07.262Z,9.20
2022-11-27T05:34:10.443Z,8.93
2022-11-27T05:36:13.383Z,8.25
2022-11-27T05:38:16.102Z,9.43
2022-11-27T05:40:18.875Z,8.10
2022-11-27T05:42:21.591Z,8.32
2022-11-27T05:44:24.299Z,8.68
2022-11-27T05:46:28.786Z,7.80
2022-11-27T05:48:31.628Z,6.97
2022-11-27T05:50:34.336Z,7.78
2022-11-27T05:52:37.104Z,7.90
2022-11-27T05:54:40.022Z,7.97
2022-11-27T05:56:42.957Z,7.68
2022-11-27T05:58:47.590Z,8.45
2022-11-27T06:00:50.392Z,8.88
2022-11-27T06:02:54.571Z,10.02
2022-11-27T06:04:57.478Z,9.02
2022-11-27T06:07:00.282Z,9.52
2022-11-27T06:09:05.700Z,9.20
2022-11-27T06:11:12.587Z,9.82
2022-11-27T06:13:15.724Z,8.15
2022-11-27T06:15:18.559Z,8.30
2022-11-27T06:17:21.334Z,8.38
2022-11-27T06:19:25.593Z,8.02
2022-11-27T06:21:28.289Z,7.55
2022-11-27T06:23:31.083Z,7.53
2022-11-27T06:25:33.775Z,7.90
2022-11-27T06:27:37.443Z,7.07
2022-11-27T06:29:40.210Z,8.07
2022-11-27T06:31:43.231Z,8.38
2022-11-27T06:33:46.387Z,8.25
2022-11-27T06:35:50.508Z,7.57
2022-11-27T06:37:53.148Z,8.52
2022-11-27T06:39:55.869Z,8.45
2022-11-27T06:41:58.597Z,8.60
2022-11-27T06:44:02.571Z,7.75
2022-11-27T06:46:07.485Z,8.05
2022-11-27T06:48:10.251Z,7.95
2022-11-27T06:50:13.162Z,7.93
2022-11-27T06:52:17.409Z,7.40
2022-11-27T06:54:20.119Z,7.88
2022-11-27T06:56:25.650Z,7.78
2022-11-27T06:58:31.208Z,12.50
2022-11-27T07:00:34.121Z,8.57
2022-11-27T07:02:36.917Z,10.45
2022-11-27T07:04:39.948Z,6.57
2022-11-27T07:06:43.384Z,7.18
2022-11-27T07:08:47.866Z,7.20
2022-11-27T07:10:50.609Z,7.10
2022-11-27T07:12:53.281Z,6.93
2022-11-27T07:14:55.990Z,7.65
2022-11-27T07:16:58.703Z,7.70
2022-11-27T07:19:03.593Z,7.20
2022-11-27T07:21:06.922Z,7.20
2022-11-27T07:23:09.607Z,6.78
2022-11-27T07:25:13.710Z,8.00
2022-11-27T07:27:16.423Z,7.03
2022-11-27T07:29:19.204Z,8.20
2022-11-27T07:31:24.935Z,7.78
2022-11-27T07:33:28.050Z,8.13
2022-11-27T07:35:30.799Z,9.15
2022-11-27T07:37:34.894Z,8.48
2022-11-27T07:40:00.779Z,7.03
2022-11-27T07:42:23.090Z,7.78
2022-11-27T07:44:24.491Z,6.60
2022-11-27T07:46:27.566Z,8.35
2022-11-27T07:48:30.351Z,6.68
2022-11-27T07:50:33.189Z,6.70
2022-11-27T07:52:41.008Z,3.90
2022-11-27T07:54:44.358Z,7.13
2022-11-27T07:56:47.149Z,6.90
2022-11-27T07:58:51.278Z,6.35
2022-11-27T08:00:54.038Z,5.40
2022-11-27T08:02:56.794Z,6.35
2022-11-27T08:04:59.635Z,5.35
2022-11-27T08:07:02.413Z,5.93
2022-11-27T08:09:05.319Z,6.35
2022-11-27T08:11:08.049Z,5.47
2022-11-27T08:13:11.247Z,5.13
2022-11-27T08:15:15.357Z,5.05
2022-11-27T08:17:18.395Z,5.47
2022-11-27T08:19:21.212Z,5.53
2022-11-27T08:21:24.800Z,5.30
2022-11-27T08:23:27.539Z,5.30
2022-11-27T08:25:30.302Z,5.50
2022-11-27T08:27:33.371Z,5.20
2022-11-27T08:29:36.408Z,5.95
2022-11-27T08:31:40.907Z,3.60
2022-11-27T08:33:43.611Z,5.00
2022-11-27T08:35:49.225Z,4.53
2022-11-27T08:37:52.067Z,5.07
2022-11-27T08:39:54.795Z,4.60
2022-11-27T08:41:57.581Z,4.22
2022-11-27T08:44:00.386Z,4.43
2022-11-27T08:46:05.186Z,5.13
2022-11-27T08:48:09.497Z,5.30
2022-11-27T08:50:12.328Z,4.97
2022-11-27T08:52:15.068Z,5.22
2022-11-27T08:54:17.892Z,5.00
2022-11-27T08:56:22.376Z,4.63
2022-11-27T08:58:25.036Z,4.57
2022-11-27T09:00:28.247Z,4.60
2022-11-27T09:02:31.070Z,4.57
2022-11-27T09:04:35.168Z,5.20
2022-11-27T09:06:37.964Z,4.43
2022-11-27T09:08:41.710Z,4.80
2022-11-27T09:10:44.520Z,5.30
2022-11-27T09:12:47.497Z,4.45
2022-11-27T09:14:50.325Z,4.35
2022-11-27T09:16:54.024Z,5.25
2022-11-27T09:18:58.127Z,5.00
2022-11-27T09:21:04.324Z,4.68
2022-11-27T09:23:11.442Z,5.10
2022-11-27T09:25:17.121Z,4.97
2022-11-27T09:27:19.829Z,5.30
2022-11-27T09:29:23.006Z,4.80
2022-11-27T09:31:26.156Z,4.57
2022-11-27T09:33:30.356Z,4.60
2022-11-27T09:35:33.244Z,4.43
2022-11-27T09:37:37.445Z,5.07
2022-11-27T09:39:40.103Z,4.93
2022-11-27T09:41:47.812Z,4.70
2022-11-27T09:43:54.342Z,5.57
2022-11-27T09:46:03.940Z,5.45
2022-11-27T09:48:12.554Z,5.32
2022-11-27T09:50:18.392Z,4.95
2022-11-27T09:52:25.644Z,5.40
2022-11-27T09:54:35.807Z,5.78
2022-11-27T09:56:38.793Z,5.68
2022-11-27T09:58:43.714Z,5.32
2022-11-27T10:00:47.219Z,5.93
2022-11-27T10:02:50.165Z,5.10
2022-11-27T10:05:19.488Z,5.85
2022-11-27T10:07:26.523Z,6.03
2022-11-27T10:09:41.936Z,5.80
2022-11-27T10:11:54.002Z,6.18
2022-11-27T10:14:06.868Z,5.57
2022-11-27T10:16:22.246Z,4.65
2022-11-27T10:18:33.399Z,5.50
2022-11-27T10:20:43.591Z,5.60
2022-11-27T10:22:55.912Z,4.85
2022-11-27T10:25:08.451Z,5.65
2022-11-27T10:27:19.630Z,5.45
2022-11-27T10:29:37.657Z,6.03
2022-11-27T10:31:46.613Z,7.28
2022-11-27T10:33:54.425Z,7.25
2022-11-27T10:35:57.489Z,6.47
2022-11-27T10:38:06.963Z,6.28
2022-11-27T10:40:24.370Z,6.53
2022-11-27T10:42:33.109Z,6.47
2022-11-27T10:44:39.805Z,6.65
2022-11-27T10:48:45.332Z,7.00
2022-11-27T10:50:50.390Z,5.18
2022-11-27T10:52:56.744Z,6.28
2022-11-27T10:55:03.691Z,5.60
2022-11-27T10:57:25.234Z,5.32
2022-11-27T10:59:34.645Z,5.50
2022-11-27T11:01:45.722Z,4.50
2022-11-27T11:03:48.569Z,4.00
2022-11-27T11:06:21.459Z,4.20
2022-11-27T11:08:26.416Z,4.43
2022-11-27T11:10:36.051Z,3.83
2022-11-27T11:12:40.487Z,4.03
2022-11-27T11:14:52.033Z,3.78
2022-11-27T11:16:55.874Z,3.55
2022-11-27T11:19:00.985Z,3.05
2022-11-27T11:21:07.200Z,2.58
2022-11-27T11:23:22.073Z,2.88
2022-11-27T11:25:24.916Z,2.95
2022-11-27T11:27:31.050Z,3.03
2022-11-27T11:29:38.837Z,3.20
2022-11-27T11:31:42.303Z,3.08
2022-11-27T11:33:52.245Z,3.78
2022-11-27T11:35:58.388Z,2.85
2022-11-27T11:38:02.549Z,2.85
2022-11-27T11:40:12.047Z,2.90
2022-11-27T11:42:22.551Z,3.25
2022-11-27T11:44:34.225Z,2.80
2022-11-27T11:46:40.264Z,3.13
2022-11-27T11:48:54.187Z,3.30
2022-11-27T11:51:02.474Z,3.30
2022-11-27T11:53:14.053Z,2.85
2022-11-27T11:55:20.947Z,3.78
2022-11-27T11:57:51.296Z,3.25
2022-11-27T12:02:35.211Z,2.33
2022-11-27T12:05:06.543Z,2.40
2022-11-27T12:07:21.597Z,3.25
2022-11-27T12:09:41.318Z,2.90
2022-11-27T12:11:52.225Z,2.63
2022-11-27T12:14:14.385Z,2.92
2022-11-27T12:16:25.064Z,2.60
2022-11-27T12:18:48.061Z,2.90
2022-11-27T12:21:08.188Z,3.22
2022-11-27T12:23:49.400Z,2.90
2022-11-27T12:26:06.103Z,3.10
2022-11-27T12:28:28.371Z,3.10
2022-11-27T12:30:42.725Z,3.20
2022-11-27T12:33:00.649Z,2.72
2022-11-27T12:35:24.382Z,2.70
2022-11-27T12:37:41.247Z,2.92
2022-11-27T12:39:58.283Z,3.15
2022-11-27T12:42:07.532Z,3.03
2022-11-27T12:44:20.407Z,2.75
2022-11-27T12:46:29.718Z,2.70
2022-11-27T12:48:36.164Z,2.80
2022-11-27T12:50:45.002Z,2.85
2022-11-27T12:52:56.666Z,2.42
2022-11-27T12:55:04.744Z,2.90
2022-11-27T12:57:15.074Z,2.70
2022-11-27T12:59:23.719Z,3.28
2022-11-27T13:01:31.770Z,3.28
2022-11-27T13:03:43.296Z,2.72
2022-11-27T13:05:52.914Z,3.10
2022-11-27T13:08:02.529Z,3.30
2022-11-27T13:10:14.378Z,3.17
2022-11-27T13:12:21.682Z,3.60
2022-11-27T13:14:29.130Z,3.50
2022-11-27T13:16:36.664Z,3.60
2022-11-27T13:18:42.530Z,3.63
2022-11-27T13:20:52.584Z,3.35
2022-11-27T13:22:55.778Z,3.40
2022-11-27T13:25:02.761Z,3.72
2022-11-27T13:27:10.223Z,3.85
2022-11-27T13:29:22.954Z,3.90
2022-11-27T13:31:29.267Z,3.88
2022-11-27T13:33:38.180Z,3.90
2022-11-27T13:35:42.788Z,4.00
2022-11-27T13:37:50.991Z,4.63
2022-11-27T13:40:01.092Z,4.10
2022-11-27T13:42:07.054Z,4.65
2022-11-27T13:44:24.136Z,4.32
2022-11-27T13:46:28.895Z,4.15
2022-11-27T13:48:34.664Z,4.47
2022-11-27T13:50:44.832Z,4.28
2022-11-27T13:52:59.928Z,4.35
2022-11-27T13:55:05.432Z,4.53
2022-11-27T13:57:13.299Z,4.88
2022-11-27T13:59:17.709Z,4.32
2022-11-27T14:01:22.561Z,5.35
2022-11-27T14:03:27.297Z,4.63
2022-11-27T14:05:41.782Z,4.50
2022-11-27T14:07:47.818Z,4.57
2022-11-27T14:09:55.593Z,4.55
2022-11-27T14:11:58.662Z,5.07
2022-11-27T14:14:03.686Z,4.82
2022-11-27T14:16:20.485Z,4.80
2022-11-27T14:18:24.389Z,4.80
2022-11-27T14:20:31.347Z,4.63
2022-11-27T14:23:07.141Z,4.85
2022-11-27T14:25:19.619Z,4.65
2022-11-27T14:27:24.211Z,4.60
2022-11-27T14:29:30.979Z,4.68
2022-11-27T14:34:07.439Z,5.05
2022-11-27T14:36:08.818Z,5.03
2022-11-27T14:38:12.802Z,4.32
2022-11-27T14:40:24.052Z,4.68
2022-11-27T14:42:30.220Z,4.45
2022-11-27T14:44:35.784Z,4.25
2022-11-27T14:46:38.906Z,4.93
2022-11-27T14:48:45.125Z,4.45
2022-11-27T14:50:49.259Z,5.18
2022-11-27T14:52:55.483Z,4.78
2022-11-27T14:54:59.405Z,4.53
2022-11-27T14:57:05.273Z,4.97
2022-11-27T14:59:08.396Z,5.13
2022-11-27T15:01:23.843Z,5.50
2022-11-27T15:03:27.898Z,4.75
2022-11-27T15:05:31.281Z,5.20
2022-11-27T15:07:45.361Z,5.68
2022-11-27T15:09:53.579Z,4.95
2022-11-27T15:11:59.481Z,4.65
2022-11-27T15:14:04.480Z,4.35
2022-11-27T15:16:15.476Z,4.78
2022-11-27T15:18:22.755Z,5.43
2022-11-27T15:20:29.956Z,5.95
2022-11-27T15:22:33.571Z,5.57
2022-11-27T15:24:39.464Z,6.90
2022-11-27T15:26:45.009Z,5.22
2022-11-27T15:28:53.888Z,5.07
2022-11-27T15:30:58.280Z,6.60
2022-11-27T15:33:01.270Z,6.53
2022-11-27T15:35:14.265Z,6.53
2022-11-27T15:37:24.108Z,6.68
2022-11-27T15:39:33.238Z,6.30
2022-11-27T15:41:40.835Z,5.80
2022-11-27T15:43:46.401Z,5.07
2022-11-27T15:45:49.259Z,5.32
2022-11-27T15:47:58.382Z,6.07
2022-11-27T15:50:01.899Z,5.15
2022-11-27T15:52:05.115Z,5.85
2022-11-27T15:54:07.963Z,6.78
2022-11-27T15:56:10.758Z,6.30
2022-11-27T15:58:13.528Z,6.35
2022-11-27T16:00:17.560Z,6.70
2022-11-27T16:02:20.507Z,6.53
2022-11-27T16:04:24.820Z,6.38
2022-11-27T16:06:27.522Z,5.47
2022-11-27T16:08:30.271Z,6.13
2022-11-27T16:10:33.061Z,6.25
2022-11-27T16:12:35.822Z,6.55
2022-11-27T16:14:38.941Z,6.07
2022-11-27T16:16:42.372Z,6.50
2022-11-27T16:18:45.339Z,6.93
2022-11-27T16:20:49.440Z,7.20
2022-11-27T16:22:52.444Z,7.22
2022-11-27T16:24:55.121Z,6.70
2022-11-27T16:26:57.863Z,7.90
2022-11-27T16:29:00.680Z,8.10
2022-11-27T16:31:07.709Z,8.68
2022-11-27T16:33:10.501Z,6.95
2022-11-27T16:35:13.768Z,7.35
2022-11-27T16:37:18.674Z,7.03
2022-11-27T16:39:21.444Z,7.13
2022-11-27T16:41:25.220Z,7.00
2022-11-27T16:43:28.836Z,6.05
2022-11-27T16:45:31.646Z,6.07
2022-11-27T16:47:34.454Z,7.25
2022-11-27T16:49:37.130Z,6.47
2022-11-27T16:51:40.658Z,4.47
2022-11-27T16:53:46.182Z,4.75
2022-11-27T16:55:49.295Z,5.93
2022-11-27T16:57:52.052Z,6.35
2022-11-27T16:59:54.755Z,6.40
2022-11-27T17:01:57.797Z,5.65
2022-11-27T17:04:01.171Z,4.70
2022-11-27T17:06:09.148Z,5.00
2022-11-27T17:08:11.876Z,4.70
2022-11-27T17:10:16.045Z,4.20
2022-11-27T17:12:18.744Z,4.75
2022-11-27T17:14:21.640Z,5.10
2022-11-27T17:16:24.844Z,6.00
2022-11-27T17:18:27.707Z,4.95
2022-11-27T17:20:30.421Z,4.47
2022-11-27T17:22:34.270Z,4.60
2022-11-27T17:24:37.042Z,4.38
2022-11-27T17:26:43.081Z,4.78
2022-11-27T17:28:46.688Z,4.68
2022-11-27T17:30:49.421Z,5.32
2022-11-27T17:32:52.572Z,4.50
2022-11-27T17:34:55.551Z,4.47
2022-11-27T17:36:58.658Z,4.43
2022-11-27T17:39:02.743Z,4.93
2022-11-27T17:41:07.677Z,4.80
2022-11-27T17:43:11.886Z,4.85
2022-11-27T17:45:14.990Z,3.90
2022-11-27T17:47:17.941Z,4.03
2022-11-27T17:49:21.986Z,6.10
2022-11-27T17:51:24.871Z,5.40
2022-11-27T17:53:27.908Z,4.97
2022-11-27T17:55:30.651Z,4.97
2022-11-27T17:57:34.508Z,5.10
2022-11-27T17:59:39.950Z,4.68
2022-11-27T18:01:42.945Z,5.15
2022-11-27T18:03:47.061Z,4.63
2022-11-27T18:05:49.848Z,5.53
2022-11-27T18:07:52.635Z,4.82
2022-11-27T18:09:57.068Z,4.70
2022-11-27T18:11:59.793Z,4.15
2022-11-27T18:14:03.100Z,4.53
2022-11-27T18:16:10.614Z,5.50
2022-11-27T18:18:13.468Z,5.38
2022-11-27T18:20:16.239Z,5.20
2022-11-27T18:22:19.364Z,3.88
2022-11-27T18:24:23.942Z,3.95
2022-11-27T18:26:45.470Z,4.63
2022-11-27T18:28:55.559Z,5.60
2022-11-27T18:30:58.262Z,5.40
2022-11-27T18:33:03.396Z,6.13
2022-11-27T18:35:07.429Z,5.43
2022-11-27T18:37:10.927Z,4.75
2022-11-27T18:39:13.884Z,4.75
2022-11-27T18:41:18.518Z,4.35
2022-11-27T18:43:21.323Z,5.78
2022-11-27T18:45:33.014Z,5.10
2022-11-27T18:47:37.262Z,5.97
2022-11-27T18:49:41.714Z,8.45
2022-11-27T18:51:44.943Z,4.88
2022-11-27T18:53:48.447Z,4.60
2022-11-27T18:55:52.899Z,4.32
2022-11-27T18:57:55.873Z,4.57
2022-11-27T18:59:58.722Z,5.10
2022-11-27T19:02:01.611Z,4.88
2022-11-27T19:04:05.085Z,5.60
2022-11-27T19:06:11.231Z,5.32
2022-11-27T19:08:13.905Z,4.55
2022-11-27T19:10:17.258Z,5.55
2022-11-27T19:12:20.108Z,5.75
2022-11-27T19:14:22.818Z,5.60
2022-11-27T19:16:29.028Z,4.45
2022-11-27T19:18:31.752Z,5.05
2022-11-27T19:20:36.787Z,4.63
2022-11-27T19:22:40.905Z,4.78
2022-11-27T19:24:43.727Z,6.18
2022-11-27T19:26:46.495Z,6.13
2022-11-27T19:28:50.209Z,6.05
2022-11-27T19:30:53.029Z,6.30
2022-11-27T19:32:55.709Z,6.25
2022-11-27T19:35:00.899Z,6.25
2022-11-27T19:37:07.123Z,6.25
2022-11-27T19:39:15.409Z,6.45
2022-11-27T19:41:19.579Z,7.30
2022-11-27T19:43:22.370Z,6.60
2022-11-27T19:45:26.167Z,6.70
2022-11-27T19:47:28.867Z,7.07
2022-11-27T19:49:31.658Z,6.57
2022-11-27T19:51:37.371Z,7.47
2022-11-27T19:53:41.039Z,9.23
2022-11-27T19:55:45.351Z,8.25
2022-11-27T19:57:48.031Z,7.45
2022-11-27T19:59:50.803Z,6.97
2022-11-27T20:01:53.594Z,7.20
2022-11-27T20:03:57.045Z,8.75
2022-11-27T20:06:03.685Z,9.07
2022-11-27T20:08:06.609Z,8.10
2022-11-27T20:10:09.721Z,8.23
2022-11-27T20:12:14.670Z,7.18
2022-11-27T20:14:17.608Z,7.15
2022-11-27T20:16:22.090Z,8.07
2022-11-27T20:18:25.965Z,8.80
2022-11-27T20:20:33.864Z,9.48
2022-11-27T20:22:37.048Z,8.25
2022-11-27T20:24:58.167Z,7.78
2022-11-27T20:27:02.542Z,7.82
2022-11-27T20:29:07.507Z,8.57
2022-11-27T20:31:15.684Z,7.20
2022-11-27T20:33:19.683Z,6.90
2022-11-27T20:35:22.591Z,7.45
2022-11-27T20:37:25.411Z,8.65
2022-11-27T20:39:28.463Z,9.93
2022-11-27T20:41:31.782Z,9.20
2022-11-27T20:43:34.456Z,7.80
2022-11-27T20:45:39.530Z,8.15
2022-11-27T20:47:42.228Z,7.60
2022-11-27T20:49:44.994Z,7.70
2022-11-27T20:51:49.073Z,7.47
2022-11-27T20:53:52.129Z,7.88
2022-11-27T20:55:54.841Z,9.07
2022-11-27T20:57:57.610Z,9.63
2022-11-27T21:00:00.294Z,9.00
2022-11-27T21:02:05.401Z,7.88
2022-11-27T21:04:17.077Z,6.40
2022-11-27T21:06:21.552Z,6.75
2022-11-27T21:08:24.370Z,7.20
2022-11-27T21:10:27.224Z,6.30
2022-11-27T21:12:29.900Z,6.82
2022-11-27T21:14:32.581Z,7.57
2022-11-27T21:16:38.032Z,7.00
2022-11-27T21:18:42.270Z,7.53
2022-11-27T21:20:45.057Z,6.45
2022-11-27T21:22:47.804Z,10.07
2022-11-27T21:24:50.919Z,8.98
2022-11-27T21:26:53.756Z,8.70
2022-11-27T21:28:56.791Z,7.88
2022-11-27T21:31:06.170Z,7.22
2022-11-27T21:33:08.842Z,6.70
2022-11-27T21:35:12.936Z,7.72
2022-11-27T21:37:15.733Z,8.38
2022-11-27T21:39:20.618Z,7.60
2022-11-27T21:41:23.472Z,7.28
2022-11-27T21:43:26.178Z,7.78
2022-11-27T21:45:29.097Z,7.60
2022-11-27T21:47:31.871Z,6.95
2022-11-27T21:49:34.636Z,6.95
2022-11-27T21:51:39.649Z,7.07
2022-11-27T21:53:43.328Z,7.28
2022-11-27T21:55:46.140Z,6.90
2022-11-27T21:57:48.872Z,6.60
2022-11-27T21:59:51.586Z,7.18
2022-11-27T22:01:56.997Z,6.88
2022-11-27T22:03:59.843Z,6.65
2022-11-27T22:06:06.735Z,6.90
2022-11-27T22:10:13.584Z,5.95
2022-11-27T22:12:16.300Z,6.15
2022-11-27T22:14:18.946Z,6.00
2022-11-27T22:16:23.594Z,7.15
2022-11-27T22:18:26.415Z,7.88
2022-11-27T22:20:29.092Z,6.65
2022-11-27T22:22:31.811Z,7.85
2022-11-27T22:24:36.157Z,8.85
2022-11-27T22:26:38.988Z,9.90
2022-11-27T22:28:42.703Z,9.55
2022-11-27T22:30:45.458Z,8.82
2022-11-27T22:32:48.229Z,6.85
2022-11-27T22:34:51.701Z,6.82
2022-11-27T22:36:56.848Z,6.45
2022-11-27T22:39:01.483Z,6.93
2022-11-27T22:41:05.935Z,6.80
2022-11-27T22:43:08.658Z,6.00
2022-11-27T22:45:11.491Z,6.63
2022-11-27T22:47:14.453Z,6.15
2022-11-27T22:49:19.369Z,7.30
2022-11-27T22:51:22.374Z,7.53
2022-11-27T22:53:25.108Z,7.05
2022-11-27T22:55:28.151Z,6.78
2022-11-27T22:57:34.259Z,6.32
2022-11-27T22:59:37.055Z,6.40
2022-11-27T23:01:41.039Z,6.65
2022-11-27T23:03:44.248Z,6.82
2022-11-27T23:05:47.606Z,6.40
2022-11-27T23:07:50.470Z,6.47
2022-11-27T23:09:53.231Z,5.80
2022-11-27T23:11:56.961Z,5.53
2022-11-27T23:14:01.018Z,5.68
2022-11-27T23:16:04.825Z,6.38
2022-11-27T23:18:07.698Z,5.50
2022-11-27T23:20:11.689Z,6.32
2022-11-27T23:22:14.396Z,6.40
2022-11-27T23:24:17.158Z,6.07
2022-11-27T23:26:22.115Z,6.82
2022-11-27T23:28:24.931Z,5.90
2022-11-27T23:30:29.001Z,5.68
2022-11-27T23:32:31.700Z,5.50
2022-11-27T23:34:34.588Z,6.53
2022-11-27T23:36:38.576Z,5.53
2022-11-27T23:38:41.684Z,6.13
2022-11-27T23:40:44.386Z,6.38
2022-11-27T23:42:47.117Z,5.88
2022-11-27T23:44:49.829Z,6.40
2022-11-27T23:46:53.918Z,6.30
2022-11-27T23:48:58.521Z,5.60
2022-11-27T23:51:01.915Z,5.68
2022-11-27T23:53:04.630Z,6.18
2022-11-27T23:55:07.817Z,5.82
2022-11-27T23:57:10.517Z,5.35
2022-11-27T23:59:13.555Z,6.15
